Time;durP1;ratioP1;P1;durP2;ratioP2;P2;SDS_P1;SDS_P2;PMS_P1;PMS_P2;Temp;Humidity;BMP_temperature;BMP_pressure;BME280_temperature;BME280_humidity;BME280_pressure;Samples;Min_cycle;Max_cycle;Signal;HPM_P1;HPM_P2
2022/09/18 00:00:15;;;;;;;1.65;0.60;;;8.40;99.90;;;7.68;100.00;101869.41;5147450;23;20400;-74
2022/09/18 00:02:16;;;;;;;1.40;0.50;;;8.40;99.90;;;7.62;100.00;101861.97;5122524;23;20005;-74
2022/09/18 00:04:16;;;;;;;2.00;0.60;;;8.40;99.90;;;7.50;100.00;101849.72;5148797;23;20005;-75
2022/09/18 00:06:24;;;;;;;3.08;0.57;;;8.40;99.90;;;7.45;100.00;101843.13;5149193;23;20031;-74
2022/09/18 00:08:25;;;;;;;2.63;0.70;;;8.40;99.90;;;7.54;100.00;101859.06;5121980;23;20016;-74
2022/09/18 00:10:26;;;;;;;4.45;0.82;;;8.30;99.90;;;7.45;100.00;101836.09;5147495;23;20073;-74
2022/09/18 00:12:26;;;;;;;0.82;0.50;;;8.30;99.90;;;7.54;100.00;101858.22;5148868;23;20084;-74
2022/09/18 00:14:27;;;;;;;2.88;0.63;;;8.30;99.90;;;7.57;100.00;101869.34;5149056;23;20013;-74
2022/09/18 00:16:28;;;;;;;3.42;1.10;;;8.30;99.90;;;7.56;100.00;101870.28;5122459;23;20009;-74
2022/09/18 00:18:30;;;;;;;2.85;0.73;;;8.30;99.90;;;7.50;100.00;101854.97;5122418;23;20005;-74
2022/09/18 00:20:35;;;;;;;1.00;0.60;;;8.30;99.90;;;7.53;100.00;101860.00;5147255;23;20013;-74
2022/09/18 00:22:36;;;;;;;2.58;0.65;;;8.30;99.90;;;7.45;100.00;101857.09;5148807;23;20480;-74
2022/09/18 00:24:37;;;;;;;1.55;0.65;;;8.30;99.90;;;7.51;100.00;101867.16;5121779;23;20040;-74
2022/09/18 00:26:39;;;;;;;3.13;0.90;;;8.20;99.90;;;7.45;100.00;101864.97;5148953;23;20015;-74
2022/09/18 00:28:40;;;;;;;1.20;0.60;;;8.30;99.90;;;7.34;100.00;101841.28;5147728;23;20310;-74
2022/09/18 00:30:40;;;;;;;1.50;0.70;;;8.20;99.90;;;7.33;100.00;101850.06;5147375;23;20000;-74
2022/09/18 00:32:42;;;;;;;1.67;0.60;;;8.20;99.90;;;7.37;100.00;101859.44;5122379;23;20008;-74
2022/09/18 00:34:42;;;;;;;1.30;0.50;;;8.20;99.90;;;7.31;100.00;101854.59;5146948;23;20104;-74
2022/09/18 00:36:44;;;;;;;1.10;0.60;;;8.20;99.90;;;7.30;100.00;101852.06;5147542;23;20005;-74
2022/09/18 00:38:46;;;;;;;1.20;0.68;;;8.10;99.90;;;7.28;100.00;101849.56;5146860;23;20005;-74
2022/09/18 00:40:47;;;;;;;1.40;0.65;;;8.10;99.90;;;7.30;100.00;101857.31;5122107;23;20019;-74
2022/09/18 00:42:48;;;;;;;2.28;0.80;;;8.20;99.90;;;7.35;100.00;101861.28;5147304;23;20005;-74
2022/09/18 00:44:49;;;;;;;4.25;1.05;;;8.20;99.90;;;7.31;100.00;101857.22;5147247;23;20008;-74
2022/09/18 00:46:50;;;;;;;2.13;0.60;;;8.10;99.90;;;7.32;100.00;101856.25;5147289;23;20045;-74
2022/09/18 00:49:23;;;;;;;1.88;0.60;;;8.10;99.90;;;7.27;100.00;101842.63;5147156;23;20078;-74
2022/09/18 00:51:25;;;;;;;1.45;0.75;;;8.10;99.90;;;7.37;100.00;101869.94;5147210;23;20076;-73
2022/09/18 00:53:27;;;;;;;2.35;1.00;;;8.10;99.90;;;7.40;100.00;101869.72;5146750;23;20511;-74
2022/09/18 00:55:33;;;;;;;2.03;1.58;;;8.10;99.90;;;7.32;100.00;101861.50;5147302;23;20005;-74
2022/09/18 00:57:40;;;;;;;1.90;1.02;;;8.10;99.90;;;7.26;100.00;101846.19;5148493;23;20005;-74
2022/09/18 00:59:45;;;;;;;1.50;1.00;;;8.10;99.90;;;7.36;100.00;101862.13;5147244;23;20012;-74
2022/09/18 01:01:46;;;;;;;3.70;0.80;;;8.10;99.90;;;7.29;100.00;101856.47;5147162;23;20048;-74
2022/09/18 01:03:47;;;;;;;2.15;0.75;;;8.10;99.90;;;7.30;100.00;101866.03;5147589;23;20001;-74
2022/09/18 01:06:12;;;;;;;1.83;0.80;;;8.10;99.90;;;7.40;100.00;101882.84;5148609;23;20008;-74
2022/09/18 01:09:16;;;;;;;4.13;1.00;;;8.10;99.90;;;7.39;100.00;101882.94;5146297;23;20072;-74
2022/09/18 01:11:56;;;;;;;3.08;0.90;;;8.10;99.90;;;7.38;100.00;101876.84;5148530;23;20027;-74
2022/09/18 01:14:15;;;;;;;1.60;0.90;;;8.10;99.90;;;7.31;100.00;101865.09;5141232;23;20004;-74
2022/09/18 01:16:38;;;;;;;2.17;0.90;;;8.10;99.90;;;7.34;100.00;101874.53;5147200;23;20004;-74
2022/09/18 01:18:54;;;;;;;2.40;1.25;;;8.00;99.90;;;7.24;100.00;101864.69;5146809;23;20095;-74
2022/09/18 01:21:01;;;;;;;3.67;1.08;;;8.10;99.90;;;7.31;100.00;101883.47;5171873;23;20008;-74
2022/09/18 01:23:26;;;;;;;1.45;0.90;;;8.00;99.90;;;7.28;100.00;101875.81;5171519;23;20079;-74
2022/09/18 01:26:13;;;;;;;3.13;0.98;;;8.00;99.90;;;7.24;100.00;101884.84;5172151;23;20455;-74
2022/09/18 01:28:48;;;;;;;2.13;0.73;;;8.00;99.90;;;6.98;100.00;101841.22;5148440;23;20088;-74
2022/09/18 01:30:52;;;;;;;1.90;0.68;;;8.00;99.90;;;7.12;100.00;101869.94;5122620;23;20341;-74
2022/09/18 01:32:59;;;;;;;1.73;0.80;;;7.90;99.90;;;7.10;100.00;101874.47;5122007;23;20029;-74
2022/09/18 01:35:26;;;;;;;2.85;1.10;;;7.90;99.90;;;7.05;100.00;101866.06;5146990;23;20005;-74
2022/09/18 01:37:54;;;;;;;0.75;0.55;;;7.80;99.90;;;7.03;100.00;101866.19;5146457;23;20008;-74
2022/09/18 01:40:12;;;;;;;2.50;0.90;;;7.80;99.90;;;6.99;100.00;101866.50;5148195;23;20016;-74
2022/09/18 01:42:17;;;;;;;1.42;0.70;;;7.70;99.90;;;6.77;100.00;101838.28;5123019;23;20005;-74
2022/09/18 01:44:27;;;;;;;1.58;0.70;;;7.70;99.90;;;6.96;100.00;101875.41;5146825;23;20008;-74
2022/09/18 01:46:29;;;;;;;1.27;0.60;;;7.70;99.90;;;6.96;100.00;101871.97;5146913;23;20031;-75
2022/09/18 01:48:56;;;;;;;2.65;1.25;;;7.70;99.90;;;6.81;100.00;101852.03;5121891;23;20007;-74
2022/09/18 01:51:44;;;;;;;1.17;0.80;;;7.70;99.90;;;6.96;100.00;101874.59;5148066;23;20067;-74
2022/09/18 01:53:52;;;;;;;2.03;0.90;;;7.70;99.90;;;6.90;100.00;101856.66;5123280;23;20055;-74
2022/09/18 01:56:05;;;;;;;2.03;0.77;;;7.70;99.90;;;6.98;100.00;101864.81;5122317;23;20009;-74
2022/09/18 01:58:12;;;;;;;2.13;0.77;;;7.70;99.90;;;6.77;100.00;101842.69;5146654;23;20012;-74
2022/09/18 02:00:13;;;;;;;3.10;1.02;;;7.70;99.90;;;6.84;100.00;101860.50;5146595;23;20377;-74
2022/09/18 02:02:25;;;;;;;4.60;1.08;;;7.60;99.90;;;6.62;100.00;101834.91;5148078;23;20005;-74
2022/09/18 02:04:31;;;;;;;2.17;0.77;;;7.60;99.90;;;6.81;100.00;101865.94;5147696;23;20011;-74
2022/09/18 02:06:40;;;;;;;2.63;1.40;;;7.60;99.90;;;6.72;100.00;101844.78;5148267;23;20001;-74
2022/09/18 02:08:44;;;;;;;2.65;1.00;;;7.50;99.90;;;6.70;100.00;101842.25;5121232;23;20009;-74
2022/09/18 02:10:57;;;;;;;2.28;0.80;;;7.50;99.90;;;6.81;100.00;101863.31;5121735;23;20009;-74
2022/09/18 02:12:58;;;;;;;1.10;0.88;;;7.50;99.90;;;6.80;100.00;101863.44;5146431;23;20012;-74
2022/09/18 02:15:09;;;;;;;1.98;0.70;;;7.50;99.90;;;6.63;100.00;101835.75;5146413;23;20015;-74
2022/09/18 02:17:28;;;;;;;2.08;0.60;;;7.60;99.90;;;6.85;100.00;101870.06;5146749;23;20011;-74
2022/09/18 02:19:42;;;;;;;1.17;0.90;;;7.60;99.90;;;6.74;100.00;101850.75;5147835;23;20005;-74
2022/09/18 02:21:46;;;;;;;1.10;0.75;;;7.60;99.90;;;6.75;100.00;101862.94;5146672;23;20007;-74
2022/09/18 02:23:47;;;;;;;3.75;0.88;;;7.50;99.90;;;6.72;100.00;101853.47;5146096;23;20048;-73
2022/09/18 02:26:03;;;;;;;1.17;0.70;;;7.50;99.90;;;6.66;100.00;101841.63;5146363;23;20007;-73
2022/09/18 02:28:07;;;;;;;1.20;0.73;;;7.50;99.90;;;6.71;100.00;101856.22;5146815;23;20004;-74
2022/09/18 02:30:08;;;;;;;1.88;0.90;;;7.50;99.90;;;6.56;100.00;101837.13;5146084;23;20082;-74
2022/09/18 02:32:10;;;;;;;1.60;0.70;;;7.40;99.90;;;6.59;100.00;101850.00;5148070;23;20116;-74
2022/09/18 02:34:12;;;;;;;1.90;1.05;;;7.40;99.90;;;6.43;100.00;101825.75;5121328;23;20017;-74
2022/09/18 02:36:31;;;;;;;2.65;0.80;;;7.40;99.90;;;6.56;100.00;101852.84;5146545;23;20464;-74
2022/09/18 02:38:48;;;;;;;1.75;0.70;;;7.30;99.90;;;6.53;100.00;101848.66;5147635;23;20008;-74
2022/09/18 02:41:56;;;;;;;1.10;0.80;;;7.30;99.90;;;6.50;100.00;101841.00;5146462;23;20043;-74
2022/09/18 02:44:31;;;;;;;3.40;0.75;;;7.30;99.90;;;6.58;100.00;101846.53;5131053;23;20047;-74
2022/09/18 02:46:57;;;;;;;1.88;1.15;;;7.30;99.90;;;6.61;100.00;101856.81;5146853;23;20009;-74
2022/09/18 02:49:42;;;;;;;1.40;1.00;;;7.30;99.90;;;6.63;100.00;101841.81;5148217;23;20008;-74
2022/09/18 02:51:56;;;;;;;2.50;1.13;;;7.30;99.90;;;6.46;100.00;101812.44;5117302;23;20070;-73
2022/09/18 02:54:22;;;;;;;2.40;1.05;;;7.40;99.90;;;6.53;100.00;101824.22;5146372;23;20008;-74
2022/09/18 02:56:39;;;;;;;2.45;0.85;;;7.40;99.90;;;6.58;100.00;101843.94;5122051;23;20009;-74
2022/09/18 02:58:49;;;;;;;3.40;1.10;;;7.30;99.90;;;6.50;100.00;101846.22;5121737;23;20009;-74
2022/09/18 03:00:50;;;;;;;1.35;0.70;;;7.30;99.90;;;6.33;100.00;101828.16;5147642;23;20004;-74
2022/09/18 03:02:55;;;;;;;1.80;1.00;;;7.20;99.90;;;6.19;100.00;101815.13;5146300;23;20031;-74
2022/09/18 03:04:55;;;;;;;1.95;0.80;;;7.20;99.90;;;6.32;100.00;101838.75;5146597;23;20028;-74
2022/09/18 03:06:56;;;;;;;3.70;0.82;;;7.10;99.90;;;6.32;100.00;101842.22;5147010;23;20052;-74
2022/09/18 03:08:58;;;;;;;0.98;0.63;;;7.10;99.90;;;6.19;100.00;101815.13;5146192;23;20004;-73
2022/09/18 03:10:59;;;;;;;1.65;0.75;;;7.10;99.90;;;6.14;100.00;101812.00;5147876;23;20008;-74
2022/09/18 03:13:00;;;;;;;1.38;0.75;;;7.10;99.90;;;6.17;100.00;101822.28;5121488;23;20449;-74
2022/09/18 03:15:01;;;;;;;5.60;1.50;;;7.10;99.90;;;6.16;100.00;101814.50;5146692;23;20083;-74
2022/09/18 03:17:02;;;;;;;1.80;0.98;;;7.00;99.90;;;6.21;100.00;101823.75;5147761;23;20067;-74
2022/09/18 03:19:03;;;;;;;1.95;1.35;;;7.00;99.90;;;6.21;100.00;101823.75;5147595;23;20120;-74
2022/09/18 03:21:05;;;;;;;2.38;0.82;;;7.00;99.90;;;6.22;100.00;101830.66;5146492;23;20004;-74
2022/09/18 03:23:06;;;;;;;6.03;1.88;;;7.00;99.90;;;6.18;100.00;101821.34;5121113;23;20012;-74
2022/09/18 03:25:07;;;;;;;4.97;0.90;;;7.00;99.90;;;6.10;100.00;101800.88;5146273;23;20001;-74
2022/09/18 03:27:09;;;;;;;3.60;1.20;;;7.00;99.90;;;6.19;100.00;101809.91;5146032;23;20060;-74
2022/09/18 03:29:11;;;;;;;2.38;0.90;;;7.00;99.90;;;6.14;100.00;101801.50;5146329;23;20077;-74
2022/09/18 03:31:12;;;;;;;2.08;0.85;;;7.00;99.90;;;6.17;100.00;101816.19;5147946;23;20001;-74
2022/09/18 03:33:13;;;;;;;1.52;0.90;;;7.00;99.90;;;6.14;100.00;101814.63;5147495;23;20405;-74
2022/09/18 03:35:14;;;;;;;3.35;1.38;;;7.00;99.90;;;5.99;100.00;101790.28;5121260;23;20005;-74
2022/09/18 03:37:15;;;;;;;2.40;1.02;;;6.90;99.90;;;6.17;100.00;101816.19;5146166;23;20003;-74
2022/09/18 03:39:17;;;;;;;1.23;0.90;;;6.90;99.90;;;6.21;100.00;101829.00;5121360;23;20009;-74
2022/09/18 03:41:18;;;;;;;2.20;1.00;;;7.00;99.90;;;6.13;100.00;101815.53;5149178;23;20032;-74
2022/09/18 03:43:19;;;;;;;3.72;1.77;;;6.90;99.90;;;6.00;100.00;101805.03;5149205;23;20001;-74
2022/09/18 03:45:20;;;;;;;2.72;1.02;;;6.90;99.90;;;6.12;100.00;101813.88;5147834;23;20340;-74
2022/09/18 03:47:21;;;;;;;1.70;0.90;;;6.90;99.90;;;6.07;100.00;101815.94;5149072;23;20001;-74
2022/09/18 03:49:21;;;;;;;1.85;0.70;;;6.90;99.90;;;6.01;100.00;101803.25;5147656;23;20000;-74
2022/09/18 03:51:22;;;;;;;2.20;0.85;;;6.80;99.90;;;5.97;100.00;101817.50;5147706;23;20027;-74
2022/09/18 03:53:23;;;;;;;2.15;0.90;;;6.80;99.90;;;5.92;100.00;101811.72;5147249;23;20000;-74
2022/09/18 03:55:24;;;;;;;1.33;1.00;;;6.80;99.90;;;5.90;100.00;101810.97;5122776;23;20397;-74
2022/09/18 03:57:25;;;;;;;4.45;1.00;;;6.70;99.90;;;5.78;100.00;101789.03;5122730;23;20008;-74
2022/09/18 03:59:26;;;;;;;1.65;1.35;;;6.70;99.90;;;5.84;100.00;101798.25;5149175;23;20008;-74
2022/09/18 04:01:27;;;;;;;1.95;1.10;;;6.70;99.90;;;5.92;100.00;101816.94;5147646;23;20004;-74
2022/09/18 04:03:28;;;;;;;1.52;1.00;;;6.70;99.90;;;5.81;100.00;101803.69;5147506;23;20040;-74
2022/09/18 04:05:29;;;;;;;1.88;0.98;;;6.70;99.90;;;5.96;100.00;101819.28;5147559;23;20004;-74
2022/09/18 04:07:30;;;;;;;1.98;1.00;;;6.70;99.90;;;5.85;100.00;101806.06;5147469;23;20008;-74
2022/09/18 04:09:31;;;;;;;2.17;1.20;;;6.70;99.90;;;5.95;100.00;101828.06;5147257;23;20012;-74
2022/09/18 04:11:32;;;;;;;1.88;0.90;;;6.70;99.90;;;6.00;100.00;101827.78;5147672;23;20008;-73
2022/09/18 04:13:34;;;;;;;2.28;1.15;;;6.70;99.90;;;5.78;100.00;101794.25;5148490;23;20054;-74
2022/09/18 04:15:35;;;;;;;5.10;1.15;;;6.70;99.90;;;5.91;100.00;101825.75;5148984;23;20031;-74
2022/09/18 04:17:35;;;;;;;2.33;1.23;;;6.70;99.90;;;5.69;100.00;101802.72;5147404;23;20005;-74
2022/09/18 04:19:36;;;;;;;2.00;1.33;;;6.70;99.90;;;5.52;100.00;101782.88;5148755;23;20005;-74
2022/09/18 04:21:37;;;;;;;2.25;1.10;;;6.60;99.90;;;5.53;100.00;101795.00;5122618;23;20438;-74
2022/09/18 04:23:38;;;;;;;4.38;1.00;;;6.50;99.90;;;5.68;100.00;101823.72;5147201;23;20004;-74
2022/09/18 04:25:40;;;;;;;2.78;1.00;;;6.50;99.90;;;5.52;100.00;101803.81;5148808;23;20011;-74
2022/09/18 04:27:41;;;;;;;1.70;1.10;;;6.50;99.90;;;5.67;100.00;101828.16;5147613;23;20001;-74
2022/09/18 04:29:42;;;;;;;2.55;1.10;;;6.40;99.90;;;5.59;100.00;101818.16;5147485;23;20012;-74
2022/09/18 04:31:43;;;;;;;2.08;1.40;;;6.50;99.90;;;5.52;100.00;101803.81;5122269;23;20364;-74
2022/09/18 04:33:45;;;;;;;2.08;1.10;;;6.40;99.90;;;5.51;100.00;101799.50;5146957;23;20016;-74
2022/09/18 04:35:46;;;;;;;2.80;1.00;;;6.40;99.90;;;5.65;100.00;101830.00;5148688;23;20004;-74
2022/09/18 04:37:46;;;;;;;0.95;0.70;;;6.40;99.90;;;5.63;100.00;101831.03;5122103;23;20039;-74
2022/09/18 04:39:47;;;;;;;2.45;1.05;;;6.40;99.90;;;5.47;100.00;101808.47;5147000;23;20009;-74
2022/09/18 04:41:49;;;;;;;2.92;1.05;;;6.40;99.90;;;5.39;100.00;101804.66;5147438;23;20000;-74
2022/09/18 04:43:50;;;;;;;4.35;1.33;;;6.40;99.90;;;5.30;100.00;101793.00;5148650;23;20000;-74
2022/09/18 04:45:52;;;;;;;1.83;1.27;;;6.40;99.90;;;5.41;100.00;101824.56;5148901;23;20372;-74
2022/09/18 04:47:53;;;;;;;3.30;1.20;;;6.30;99.90;;;5.42;100.00;101834.09;5122646;23;20080;-74
2022/09/18 04:49:54;;;;;;;2.08;1.25;;;6.30;99.90;;;5.31;100.00;101815.63;5121907;23;20013;-74
2022/09/18 04:51:55;;;;;;;1.75;1.10;;;6.30;99.90;;;5.25;100.00;101799.47;5148566;23;20009;-74
2022/09/18 04:53:56;;;;;;;2.15;1.10;;;6.30;99.90;;;5.35;100.00;101814.47;5148257;23;20011;-74
2022/09/18 04:55:57;;;;;;;2.33;1.33;;;6.20;99.90;;;5.34;100.00;101814.59;5122380;23;20005;-74
2022/09/18 04:57:58;;;;;;;2.28;1.33;;;6.30;99.90;;;5.44;100.00;101837.44;5148721;23;20005;-74
2022/09/18 04:59:59;;;;;;;2.60;1.20;;;6.20;99.90;;;5.35;100.00;101816.25;5148696;23;20009;-74
2022/09/18 05:01:59;;;;;;;2.50;1.42;;;6.20;99.90;;;5.24;100.00;101806.47;5122320;23;20009;-74
2022/09/18 05:04:01;;;;;;;1.60;1.10;;;6.20;99.90;;;5.30;100.00;101823.53;5148518;23;20060;-74
2022/09/18 05:06:02;;;;;;;1.67;1.10;;;6.20;99.90;;;5.34;100.00;101833.75;5148717;23;20001;-74
2022/09/18 05:08:03;;;;;;;2.38;1.17;;;6.20;99.90;;;5.29;100.00;101822.69;5121874;23;20009;-74
2022/09/18 05:10:07;;;;;;;2.63;1.63;;;6.20;99.90;;;5.31;100.00;101818.25;5148434;23;20497;-74
2022/09/18 05:12:08;;;;;;;2.22;1.80;;;6.20;99.90;;;5.31;100.00;101823.47;5148358;23;20004;-74
2022/09/18 05:14:09;;;;;;;4.18;1.52;;;6.20;99.90;;;5.30;100.00;101828.78;5148807;23;20004;-74
2022/09/18 05:16:11;;;;;;;2.83;1.50;;;6.20;99.90;;;5.25;100.00;101816.00;5148390;23;20050;-74
2022/09/18 05:18:12;;;;;;;1.63;1.50;;;6.20;99.90;;;5.33;100.00;101837.28;5146798;23;20051;-74
2022/09/18 05:20:13;;;;;;;2.22;1.30;;;6.20;99.90;;;5.18;100.00;101827.78;5148220;23;20008;-74
2022/09/18 05:22:14;;;;;;;2.88;1.20;;;6.20;99.90;;;5.14;100.00;101826.28;5146929;23;20015;-74
2022/09/18 05:24:16;;;;;;;4.40;1.27;;;6.10;99.90;;;5.28;100.00;101852.44;5146748;23;20384;-74
2022/09/18 05:26:17;;;;;;;4.25;1.50;;;6.10;99.90;;;5.25;100.00;101844.78;5147108;23;20072;-74
2022/09/18 05:28:18;;;;;;;2.08;1.38;;;6.10;99.90;;;5.14;100.00;101828.88;5148368;23;20000;-74
2022/09/18 05:30:19;;;;;;;2.78;2.10;;;6.00;99.90;;;5.10;100.00;101830.03;5148302;23;20341;-74
2022/09/18 05:32:20;;;;;;;3.22;1.48;;;6.10;99.90;;;5.08;100.00;101820.59;5148221;23;20437;-74
2022/09/18 05:34:21;;;;;;;2.00;1.30;;;6.10;99.90;;;5.18;100.00;101829.53;5146544;23;20016;-74
2022/09/18 05:36:22;;;;;;;2.30;1.67;;;6.10;99.90;;;5.19;100.00;101837.31;5147052;23;20035;-74
2022/09/18 05:38:26;;;;;;;2.95;1.30;;;6.10;99.90;;;5.13;100.00;101832.47;5146394;23;20004;-74
2022/09/18 05:40:32;;;;;;;2.85;1.23;;;6.10;99.90;;;5.22;100.00;101847.59;5146741;23;20042;-74
2022/09/18 05:42:32;;;;;;;1.83;1.27;;;6.10;99.90;;;5.25;100.00;101857.84;5148442;23;20011;-74
2022/09/18 05:44:33;;;;;;;1.98;1.50;;;6.10;99.90;;;5.15;100.00;101838.41;5148235;23;20001;-73
2022/09/18 05:46:34;;;;;;;2.03;1.75;;;6.10;99.90;;;5.27;100.00;101869.06;5148180;23;20008;-74
2022/09/18 05:48:35;;;;;;;1.98;1.33;;;6.10;99.90;;;5.19;100.00;101849.53;5146672;23;20007;-74
2022/09/18 05:50:36;;;;;;;4.43;1.52;;;6.10;99.90;;;5.14;100.00;101856.84;5148234;23;20388;-74
2022/09/18 05:52:37;;;;;;;2.85;1.35;;;6.10;99.90;;;5.20;100.00;101870.34;5148480;23;20005;-74
2022/09/18 05:54:38;;;;;;;3.38;1.20;;;6.00;99.90;;;5.13;100.00;101853.38;5121628;23;20012;-74
2022/09/18 05:56:39;;;;;;;2.20;1.30;;;6.10;99.90;;;5.19;100.00;101870.47;5121587;23;20008;-74
2022/09/18 05:58:40;;;;;;;2.05;1.48;;;6.00;99.90;;;5.06;100.00;101852.06;5148360;23;20079;-74
2022/09/18 06:00:45;;;;;;;1.77;1.60;;;6.10;99.90;;;5.16;100.00;101866.28;5146474;23;20407;-74
2022/09/18 06:03:08;;;;;;;3.15;1.52;;;6.10;99.90;;;5.21;100.00;101861.59;5146313;23;20071;-74
2022/09/18 06:05:09;;;;;;;2.13;1.63;;;6.10;99.90;;;5.25;100.00;101878.78;5146806;23;20008;-74
2022/09/18 06:07:11;;;;;;;2.90;1.80;;;6.10;99.90;;;5.23;100.00;101875.41;5148325;23;20329;-74
2022/09/18 06:09:12;;;;;;;2.67;1.50;;;6.10;99.90;;;5.23;100.00;101883.25;5146264;23;20004;-74
2022/09/18 06:11:13;;;;;;;3.40;1.45;;;6.10;99.90;;;5.19;100.00;101879.16;5121750;23;20011;-73
2022/09/18 06:13:17;;;;;;;2.03;1.70;;;6.10;99.90;;;5.19;100.00;101887.00;5121782;23;20464;-74
2022/09/18 06:15:18;;;;;;;3.17;1.20;;;6.20;99.90;;;5.25;100.00;101878.78;5121314;23;20464;-74
2022/09/18 06:17:19;;;;;;;2.42;1.17;;;6.20;99.90;;;5.42;100.00;101912.59;5146478;23;20008;-73
2022/09/18 06:19:20;;;;;;;1.58;1.25;;;6.20;99.90;;;5.45;100.00;101906.31;5146526;23;20007;-74
2022/09/18 06:21:21;;;;;;;4.63;1.70;;;6.20;99.90;;;5.48;100.00;101906.97;5148488;23;20000;-74
2022/09/18 06:23:26;;;;;;;2.80;2.40;;;6.30;99.90;;;5.53;100.00;101904.91;5147658;23;20005;-74
2022/09/18 06:25:30;;;;;;;3.15;1.77;;;6.30;99.90;;;5.56;100.00;101896.88;5146458;23;20000;-74
2022/09/18 06:27:32;;;;;;;3.55;1.83;;;6.40;99.90;;;5.72;100.00;101919.47;5121417;23;20009;-74
2022/09/18 06:29:32;;;;;;;3.75;2.00;;;6.40;99.90;;;5.61;100.00;101895.75;5121747;23;20556;-74
2022/09/18 06:31:33;;;;;;;4.35;1.60;;;6.50;99.90;;;5.55;100.00;101879.47;5121656;23;20009;-74
2022/09/18 06:33:35;;;;;;;6.93;1.55;;;6.50;99.90;;;5.62;100.00;101879.09;5147688;23;20070;-73
2022/09/18 06:35:37;;;;;;;3.33;2.15;;;6.60;99.90;;;5.70;100.00;101887.31;5148412;23;20441;-74
2022/09/18 06:37:38;;;;;;;4.13;1.80;;;6.60;99.90;;;5.75;100.00;101893.09;5147974;23;20079;-74
2022/09/18 06:39:39;;;;;;;3.33;1.85;;;6.60;99.90;;;5.91;100.00;101893.84;5147807;23;20009;-74
2022/09/18 06:41:41;;;;;;;3.85;2.50;;;6.70;99.90;;;5.94;100.00;101888.41;5147942;23;20044;-74
2022/09/18 06:43:42;;;;;;;4.90;2.55;;;6.80;99.90;;;6.07;100.00;101902.38;5147861;23;20007;-74
2022/09/18 06:45:49;;;;;;;3.92;2.30;;;6.90;99.90;;;6.12;100.00;101892.47;5148018;23;20000;-74
2022/09/18 06:47:54;;;;;;;3.70;2.65;;;6.90;99.90;;;6.28;100.00;101902.78;5146746;23;20083;-74
2022/09/18 06:49:54;;;;;;;5.68;2.65;;;7.00;99.90;;;6.31;100.00;101895.56;5147975;23;20030;-74
2022/09/18 06:51:55;;;;;;;3.45;2.60;;;7.10;99.90;;;6.28;100.00;101874.78;5121362;23;20009;-74
2022/09/18 06:53:56;;;;;;;3.30;2.35;;;7.20;99.90;;;6.42;100.00;101884.38;5147526;23;20008;-74
2022/09/18 06:55:58;;;;;;;4.55;2.78;;;7.30;99.90;;;6.63;100.00;101903.94;5146352;23;20499;-74
2022/09/18 06:58:00;;;;;;;2.85;1.90;;;7.40;99.90;;;6.53;100.00;101881.88;5147825;23;20004;-74
2022/09/18 07:00:01;;;;;;;2.83;2.17;;;7.50;99.90;;;6.77;100.00;101906.47;5146117;23;20104;-74
2022/09/18 07:02:02;;;;;;;2.80;2.25;;;7.50;99.90;;;6.87;100.00;101912.75;5121098;23;20040;-74
2022/09/18 07:04:03;;;;;;;3.30;2.17;;;7.60;99.90;;;6.95;100.00;101909.63;5146352;23;20001;-74
2022/09/18 07:06:04;;;;;;;5.03;2.50;;;7.70;99.90;;;7.00;100.00;101912.75;5147893;23;20184;-73
2022/09/18 07:08:05;;;;;;;3.30;2.50;;;7.80;99.90;;;6.90;100.00;101890.75;5145746;23;20005;-74
2022/09/18 07:10:07;;;;;;;6.35;2.35;;;7.80;99.90;;;7.13;100.00;101918.88;5147871;23;20055;-74
2022/09/18 07:12:08;;;;;;;3.58;2.40;;;7.90;99.90;;;7.05;100.00;101898.38;5146310;23;20039;-74
2022/09/18 07:14:09;;;;;;;2.80;2.10;;;7.90;99.90;;;7.10;100.00;101890.22;5149539;23;20004;-74
2022/09/18 07:16:10;;;;;;;4.25;2.40;;;8.00;99.90;;;7.34;100.00;101916.53;5147980;23;20023;-74
2022/09/18 07:18:11;;;;;;;2.47;1.80;;;8.10;99.90;;;7.25;100.00;101899.66;5172921;23;20086;-74
2022/09/18 07:20:13;;;;;;;4.55;2.20;;;8.20;99.90;;;7.27;100.00;101897.75;5149414;23;20004;-74
2022/09/18 07:22:14;;;;;;;2.88;1.77;;;8.20;99.90;;;7.35;100.00;101902.47;5147895;23;20006;-74
2022/09/18 07:24:15;;;;;;;4.80;1.90;;;8.30;99.90;;;7.48;100.00;101909.38;5147540;23;20011;-74
2022/09/18 07:26:18;;;;;;;4.50;2.08;;;8.40;99.90;;;7.58;100.00;101917.44;5147767;23;20004;-74
2022/09/18 07:28:18;;;;;;;3.13;2.10;;;8.40;99.90;;;7.54;100.00;101892.34;5147833;23;20001;-73
2022/09/18 07:30:20;;;;;;;2.47;1.80;;;8.50;99.90;;;7.79;100.00;101922.00;5149197;23;20047;-74
2022/09/18 07:32:21;;;;;;;2.78;1.88;;;8.60;99.90;;;7.70;100.00;101901.66;5147812;23;20035;-74
2022/09/18 07:34:23;;;;;;;3.45;2.03;;;8.70;99.90;;;7.79;100.00;101903.63;5121568;23;20076;-74
2022/09/18 07:36:24;;;;;;;2.30;1.73;;;8.80;99.90;;;7.88;100.00;101903.94;5147850;23;20074;-74
2022/09/18 07:38:25;;;;;;;3.13;2.10;;;8.90;99.90;;;7.88;100.00;101890.78;5148751;23;20016;-74
2022/09/18 07:40:27;;;;;;;4.38;1.90;;;8.90;99.90;;;7.96;100.00;101896.31;5149055;23;20004;-74
2022/09/18 07:42:28;;;;;;;3.50;1.70;;;9.00;99.90;;;8.06;100.00;101911.31;5147871;23;20005;-74
2022/09/18 07:44:33;;;;;;;4.45;2.35;;;9.00;99.90;;;8.17;100.00;101923.66;5147833;23;20008;-74
2022/09/18 07:46:33;;;;;;;2.47;1.80;;;9.10;99.90;;;8.08;100.00;101898.06;5147668;23;20029;-74
2022/09/18 07:48:35;;;;;;;3.05;1.73;;;9.10;99.90;;;8.19;100.00;101900.72;5147790;23;20013;-74
2022/09/18 07:50:36;;;;;;;3.38;1.83;;;9.20;99.90;;;8.25;100.00;101910.81;5149071;23;20005;-74
2022/09/18 07:52:37;;;;;;;3.13;1.80;;;9.20;99.90;;;8.31;100.00;101905.97;5147504;23;20136;-74
2022/09/18 07:54:37;;;;;;;4.60;1.95;;;9.30;99.90;;;8.34;100.00;101904.91;5147702;23;20104;-73
2022/09/18 07:56:38;;;;;;;3.30;1.60;;;9.40;99.90;;;8.39;100.00;101902.78;5148973;23;20004;-74
2022/09/18 07:58:39;;;;;;;2.70;1.75;;;9.40;99.90;;;8.49;100.00;101906.41;5147841;23;20337;-74
2022/09/18 08:00:40;;;;;;;2.75;1.45;;;9.50;99.90;;;8.64;100.00;101912.28;5147376;23;20017;-74
2022/09/18 08:02:42;;;;;;;3.63;1.95;;;9.50;99.90;;;8.69;100.00;101910.19;5148090;23;20088;-74
2022/09/18 08:04:43;;;;;;;4.20;1.67;;;9.60;99.90;;;8.79;100.00;101917.25;5147491;23;20008;-74
2022/09/18 08:06:45;;;;;;;6.53;1.98;;;9.70;99.90;;;8.85;100.00;101914.16;5148985;23;20441;-74
2022/09/18 08:08:46;;;;;;;4.40;1.88;;;9.70;99.90;;;8.92;100.00;101917.16;5147161;23;20004;-74
2022/09/18 08:10:47;;;;;;;2.05;1.40;;;9.80;99.90;;;9.02;100.00;101919.94;5149214;23;20032;-74
2022/09/18 08:12:54;;;;;;;2.25;1.38;;;9.90;99.90;;;9.09;100.00;101906.19;5147736;23;20012;-74
2022/09/18 08:14:55;;;;;;;2.90;1.50;;;10.00;99.90;;;9.16;100.00;101917.09;5147622;23;20028;-74
2022/09/18 08:16:56;;;;;;;2.92;1.60;;;10.10;99.90;;;9.25;100.00;101913.75;5122388;23;20373;-74
2022/09/18 08:18:57;;;;;;;2.47;0.90;;;10.20;99.90;;;9.49;100.00;101942.59;5148847;23;20008;-74
2022/09/18 08:20:58;;;;;;;2.40;1.50;;;10.30;99.90;;;9.53;100.00;101941.41;5148964;23;20503;-74
2022/09/18 08:23:02;;;;;;;3.00;1.40;;;10.40;99.90;;;9.63;100.00;101944.97;5147273;23;20001;-74
2022/09/18 08:25:04;;;;;;;;;;;10.40;99.90;;;9.56;100.00;101923.53;5147403;23;20004;-74
2022/09/18 08:27:04;;;;;;;2.88;1.42;;;10.50;99.90;;;9.66;100.00;101919.22;5147324;23;19919;-74
2022/09/18 08:29:06;;;;;;;2.55;1.02;;;10.60;99.90;;;9.77;100.00;101924.47;5147149;23;20502;-74
2022/09/18 08:31:07;;;;;;;2.72;1.50;;;10.70;99.90;;;9.82;100.00;101918.84;5148915;23;20000;-74
2022/09/18 08:33:09;;;;;;;2.80;1.15;;;10.70;99.90;;;9.93;100.00;101926.75;5146955;23;20144;-74
2022/09/18 08:35:10;;;;;;;2.17;1.30;;;10.90;99.90;;;10.15;100.00;101946.97;5146989;23;20396;-74
2022/09/18 08:37:11;;;;;;;2.10;1.10;;;10.90;99.90;;;10.14;100.00;101930.31;5147295;23;20001;-74
2022/09/18 08:39:12;;;;;;;3.35;1.15;;;11.10;99.90;;;10.33;100.00;101932.31;5121935;23;20028;-74
2022/09/18 08:41:43;;;;;;;1.50;0.73;;;11.10;99.90;;;10.47;100.00;101946.03;5148856;23;20005;-74
2022/09/18 08:44:24;;;;;;;2.33;1.20;;;11.20;99.90;;;10.55;100.00;101945.38;5147087;23;20058;-74